Meadow Lake, Alaska
Current Conditions -  °F | °C
As of 7:56 AM on Monday 22 Dec 2014 (Local Time) from PAWS Reporting Station
Overcast Overcast  
Wind Chill: 21°   Ceiling: 6500
Heat Index: 21°   Visibility: 10mi
Dew Point: 16°   Wind: 0mph
Humidity: 80%   Direction: NA
Pressure: 29.65"   Gusts: NA
Location:  61.5841°N, 149.443°W
Report Text: PAWS 221656Z AUTO 00000KT 10SM SCT050 OVC065 M06/M09 A2965 RMK AO1
Loading
Personal Weather Stations






























Interactive Weather Map New forecast layout! Learn more

10-Day Weather Forecast

Advertisements
Track Severe Weather on mobile